Strona główna
METAR-TAF:

METAR-TAF

Lotnisko :

Port lotniczy Dżakarta-Halim Perdanakusuma

Dżakarta Wschodnia, Indonezja

Szerokość geograficzna: 06-15-59S, Długość geograficzna: 106-53-28E, wysokość: 25 m

Aktualna obserwacja pogody

Raport powstał 10 godziny i 3 minut temu, godzina 05:00 UTC
Wiatr 4 kt od wschód
Temperatura 33°C
Wilgotność 49%
Ciśnienie 1009 hPa
Widzialność: 6000 m
Mało chmury na wysokości 2000 ft

METAR: WIHH 250500Z 10004KT 6000 FEW020 33/21 Q1009 NOSIG

czas: 22:03 (15:03 UTC)

Prognoza

Raport powstał 4 godziny i 3 minut temu, godzina 11:00 UTC
Prognoza ważna od 25 godzina 12 UTC do 26 godzina 12 UTC
Wiatr 10 kt od północny wschód
Widzialność: 6000 m
Rozproszone chmury na wysokości 2000 ft
Stopniowe zmiany
od 25 godzina 15 UTC do 25 godzina 17 UTC
Wiatr 5 kt od południowo-południowy zachód
Widzialność: 5000 m
Mało chmury na wysokości 2200 ft
zmętnienie

TAF: WIHH 251100Z 2512/2612 04010KT 6000 SCT020 BECMG 2515/2517 20005KT 5000 HZ FEW022

Obserwacja i prognoza pogody dla ponad 4000 lotnisk (raport METAR i TAF).

Dostępne stacje oznaczono żółtymi i czerwonymi punktami na mapie.

Najedź kursorem aby zobaczyć nazwę stacji.

Kliknij aby zobaczyć obserwacje i prognozy pogody.

Aby zmienić mapę: kliknij na zielony przycisk z czarnym krzyżykiem, aby powiększyć; na zielony przycisk z myślnikiem, aby pomniejszyć; na zielone strzałki, aby przejść do map sąsiednich.


METAR-TAF: